createdAt,value
2018-09-17T00:00:22.116Z,51.75
2018-09-17T00:02:50.658Z,52.14
2018-09-17T00:05:18.898Z,51.55
2018-09-17T00:07:47.391Z,51.90
2018-09-17T00:10:15.841Z,52.21
2018-09-17T00:12:44.504Z,51.96
2018-09-17T00:15:12.865Z,52.75
2018-09-17T00:17:41.262Z,52.95
2018-09-17T00:20:09.556Z,53.38
2018-09-17T00:22:37.927Z,53.05
2018-09-17T00:25:06.421Z,52.10
2018-09-17T00:27:34.919Z,52.82
2018-09-17T00:30:03.341Z,53.43
2018-09-17T00:32:31.720Z,53.57
2018-09-17T00:35:00.077Z,53.33
2018-09-17T00:37:28.665Z,52.83
2018-09-17T00:39:56.993Z,53.42
2018-09-17T00:42:25.496Z,52.92
2018-09-17T00:44:53.865Z,52.95
2018-09-17T00:47:22.145Z,52.93
2018-09-17T00:49:50.530Z,53.22
2018-09-17T00:52:18.872Z,53.17
2018-09-17T00:54:47.241Z,52.85
2018-09-17T00:57:15.525Z,52.94
2018-09-17T00:59:43.903Z,53.07
2018-09-17T01:02:12.207Z,53.10
2018-09-17T01:04:40.672Z,53.12
2018-09-17T01:07:09.050Z,53.09
2018-09-17T01:09:43.263Z,53.13
2018-09-17T01:12:12.918Z,53.08
2018-09-17T01:14:41.350Z,53.59
2018-09-17T01:17:09.606Z,52.72
2018-09-17T01:19:37.994Z,52.94
2018-09-17T01:22:06.404Z,53.85
2018-09-17T01:24:34.707Z,53.05
2018-09-17T01:27:03.872Z,53.55
2018-09-17T01:29:32.332Z,53.54
2018-09-17T01:32:00.777Z,53.74
2018-09-17T01:34:29.031Z,54.15
2018-09-17T01:36:57.437Z,53.92
2018-09-17T01:39:25.948Z,53.92
2018-09-17T01:41:54.317Z,53.78
2018-09-17T01:44:22.659Z,53.54
2018-09-17T01:46:50.996Z,53.33
2018-09-17T01:49:19.308Z,54.26
2018-09-17T01:51:47.666Z,54.17
2018-09-17T01:54:15.965Z,54.15
2018-09-17T01:56:44.289Z,54.13
2018-09-17T01:59:12.682Z,54.55
2018-09-17T02:01:40.964Z,53.55
2018-09-17T02:04:09.299Z,54.45
2018-09-17T02:06:37.599Z,54.22
2018-09-17T02:09:07.222Z,55.34
2018-09-17T02:11:35.440Z,55.16
2018-09-17T02:14:03.768Z,54.57
2018-09-17T02:16:32.076Z,55.06
2018-09-17T02:19:00.418Z,54.29
2018-09-17T02:21:28.684Z,54.31
2018-09-17T02:23:56.962Z,54.01
2018-09-17T02:26:25.325Z,54.37
2018-09-17T02:28:53.632Z,54.49
2018-09-17T02:31:21.972Z,54.18
2018-09-17T02:33:50.290Z,53.81
2018-09-17T02:36:18.564Z,54.57
2018-09-17T02:38:46.873Z,54.29
2018-09-17T02:41:15.233Z,54.58
2018-09-17T02:43:43.655Z,54.20
2018-09-17T02:46:12.067Z,54.66
2018-09-17T02:48:40.461Z,54.79
2018-09-17T02:51:08.781Z,54.56
2018-09-17T02:53:37.191Z,54.75
2018-09-17T02:56:05.440Z,53.90
2018-09-17T02:58:33.742Z,54.51
2018-09-17T03:01:02.098Z,54.90
2018-09-17T03:03:30.369Z,53.83
2018-09-17T03:05:58.703Z,54.73
2018-09-17T03:08:27.012Z,54.30
2018-09-17T03:10:55.387Z,54.47
2018-09-17T03:13:23.723Z,54.58
2018-09-17T03:15:53.975Z,54.73
2018-09-17T03:18:34.884Z,54.52
2018-09-17T03:21:04.567Z,54.54
2018-09-17T03:23:34.757Z,54.39
2018-09-17T03:26:03.852Z,54.60
2018-09-17T03:28:32.338Z,54.65
2018-09-17T03:31:00.612Z,54.90
2018-09-17T03:33:29.126Z,54.23
2018-09-17T03:35:57.419Z,54.75
2018-09-17T03:38:34.995Z,55.20
2018-09-17T03:41:05.508Z,54.97
2018-09-17T03:43:34.768Z,54.52
2018-09-17T03:46:03.175Z,54.98
2018-09-17T03:48:32.948Z,54.77
2018-09-17T03:51:02.209Z,55.07
2018-09-17T03:53:31.014Z,55.45
2018-09-17T03:55:59.866Z,54.91
2018-09-17T03:58:28.756Z,56.06
2018-09-17T04:00:57.265Z,55.69
2018-09-17T04:03:25.615Z,55.13
2018-09-17T04:05:53.935Z,55.29
2018-09-17T04:08:22.334Z,55.21
2018-09-17T04:10:50.629Z,55.68
2018-09-17T04:13:19.069Z,56.49
2018-09-17T04:15:47.611Z,55.86
2018-09-17T04:18:16.097Z,56.40
2018-09-17T04:20:44.462Z,58.20
2018-09-17T04:23:12.839Z,56.34
2018-09-17T04:25:41.181Z,55.06
2018-09-17T04:28:09.522Z,57.37
2018-09-17T04:30:37.933Z,54.24
2018-09-17T04:33:07.349Z,54.85
2018-09-17T04:35:35.634Z,55.05
2018-09-17T04:38:03.984Z,54.19
2018-09-17T04:40:32.253Z,55.30
2018-09-17T04:43:00.643Z,53.99
2018-09-17T04:45:28.982Z,53.96
2018-09-17T04:47:57.341Z,55.04
2018-09-17T04:50:25.663Z,57.75
2018-09-17T04:52:53.990Z,51.88
2018-09-17T04:55:22.380Z,51.72
2018-09-17T04:57:50.749Z,47.77
2018-09-17T05:00:19.111Z,49.55
2018-09-17T05:02:47.540Z,50.67
2018-09-17T05:05:15.807Z,50.85
2018-09-17T05:07:44.137Z,52.62
2018-09-17T05:10:12.437Z,53.34
2018-09-17T05:12:40.729Z,51.76
2018-09-17T05:15:09.047Z,51.35
2018-09-17T05:17:37.375Z,51.74
2018-09-17T05:20:05.707Z,53.21
2018-09-17T05:22:34.102Z,53.38
2018-09-17T05:25:03.032Z,52.97
2018-09-17T05:27:31.325Z,55.64
2018-09-17T05:29:59.714Z,51.49
2018-09-17T05:32:27.999Z,52.57
2018-09-17T05:34:57.237Z,53.11
2018-09-17T05:37:25.659Z,53.61
2018-09-17T05:39:53.991Z,54.47
2018-09-17T05:42:22.393Z,55.07
2018-09-17T05:44:50.963Z,55.41
2018-09-17T05:47:19.216Z,54.68
2018-09-17T05:49:47.562Z,52.46
2018-09-17T05:52:15.997Z,52.27
2018-09-17T05:54:44.290Z,51.73
2018-09-17T05:57:12.601Z,52.76
2018-09-17T05:59:40.957Z,51.99
2018-09-17T06:02:09.354Z,52.06
2018-09-17T06:04:37.700Z,52.37
2018-09-17T06:07:06.100Z,51.71
2018-09-17T06:09:34.382Z,51.94
2018-09-17T06:12:02.942Z,52.49
2018-09-17T06:14:31.399Z,52.24
2018-09-17T06:16:59.776Z,52.27
2018-09-17T06:19:28.124Z,51.80
2018-09-17T06:21:56.808Z,51.90
2018-09-17T06:24:25.165Z,51.40
2018-09-17T06:26:53.590Z,51.04
2018-09-17T06:29:22.014Z,50.32
2018-09-17T06:31:50.260Z,51.05
2018-09-17T06:34:18.717Z,50.72
2018-09-17T06:36:47.086Z,50.35
2018-09-17T06:39:15.664Z,51.30
2018-09-17T06:41:44.050Z,51.27
2018-09-17T06:44:12.562Z,51.51
2018-09-17T06:46:40.977Z,50.40
2018-09-17T06:49:09.267Z,49.56
2018-09-17T06:51:37.563Z,48.56
2018-09-17T06:54:05.881Z,47.21
2018-09-17T06:56:34.210Z,47.57
2018-09-17T06:59:02.714Z,47.68
2018-09-17T07:01:31.069Z,47.29
2018-09-17T07:03:59.393Z,46.49
2018-09-17T07:06:27.734Z,46.85
2018-09-17T07:08:56.058Z,45.96
2018-09-17T07:11:24.376Z,45.55
2018-09-17T07:13:52.871Z,44.65
2018-09-17T07:16:21.193Z,44.46
2018-09-17T07:18:49.972Z,44.36
2018-09-17T07:21:18.308Z,45.25
2018-09-17T07:23:47.506Z,45.15
2018-09-17T07:26:15.870Z,44.87
2018-09-17T07:28:44.209Z,44.60
2018-09-17T07:31:12.465Z,43.82
2018-09-17T07:33:40.765Z,44.24
2018-09-17T07:36:09.220Z,43.53
2018-09-17T07:38:37.520Z,43.83
2018-09-17T07:41:05.912Z,43.68
2018-09-17T07:43:34.242Z,42.90
2018-09-17T07:46:02.621Z,41.34
2018-09-17T07:48:30.940Z,41.36
2018-09-17T07:50:59.319Z,41.63
2018-09-17T07:53:27.675Z,41.13
2018-09-17T07:55:55.952Z,40.55
2018-09-17T07:58:24.251Z,39.88
2018-09-17T08:00:52.605Z,39.59
2018-09-17T08:03:21.092Z,40.74
2018-09-17T08:05:49.471Z,40.13
2018-09-17T08:08:17.941Z,39.99
2018-09-17T08:10:46.425Z,39.69
2018-09-17T08:13:14.800Z,39.67
2018-09-17T08:15:43.169Z,39.65
2018-09-17T08:18:11.480Z,37.88
2018-09-17T08:20:39.869Z,38.10
2018-09-17T08:23:08.224Z,37.32
2018-09-17T08:25:36.568Z,37.68
2018-09-17T08:28:05.192Z,37.07
2018-09-17T08:30:33.529Z,35.21
2018-09-17T08:33:01.998Z,35.22
2018-09-17T08:35:30.301Z,34.88
2018-09-17T08:37:58.616Z,35.81
2018-09-17T08:40:26.900Z,32.23
2018-09-17T08:42:56.161Z,33.82
2018-09-17T08:45:24.469Z,31.96
2018-09-17T08:47:52.780Z,31.27
2018-09-17T08:50:21.171Z,29.89
2018-09-17T08:52:49.488Z,33.80
2018-09-17T08:55:22.963Z,31.10
2018-09-17T08:57:56.421Z,31.83
2018-09-17T09:00:30.089Z,31.75
2018-09-17T09:03:03.555Z,32.26
2018-09-17T09:05:39.051Z,33.08
2018-09-17T09:08:08.196Z,31.78
2018-09-17T09:10:42.455Z,32.11
2018-09-17T09:13:15.985Z,32.94
2018-09-17T09:15:44.738Z,31.97
2018-09-17T09:18:13.074Z,30.93
2018-09-17T09:20:41.392Z,31.29
2018-09-17T09:23:09.764Z,31.50
2018-09-17T09:25:38.115Z,31.76
2018-09-17T09:28:06.440Z,30.52
2018-09-17T09:30:34.776Z,29.32
2018-09-17T09:33:03.096Z,32.10
2018-09-17T09:35:31.459Z,32.00
2018-09-17T09:37:59.840Z,30.88
2018-09-17T09:40:28.329Z,30.71
2018-09-17T09:42:56.644Z,29.92
2018-09-17T09:45:25.536Z,29.39
2018-09-17T09:47:54.557Z,29.35
2018-09-17T09:50:22.877Z,31.37
2018-09-17T09:52:51.315Z,30.03
2018-09-17T09:55:19.559Z,29.84
2018-09-17T09:57:47.931Z,29.08
2018-09-17T10:00:21.680Z,30.11
2018-09-17T10:02:55.354Z,28.64
2018-09-17T10:05:23.723Z,28.99
2018-09-17T10:07:52.571Z,28.19
2018-09-17T10:10:26.270Z,28.03
2018-09-17T10:12:59.942Z,29.25
2018-09-17T10:15:33.683Z,28.33
2018-09-17T10:18:07.077Z,27.04
2018-09-17T10:20:35.453Z,29.24
2018-09-17T10:23:04.233Z,25.98
2018-09-17T10:25:32.525Z,26.14
2018-09-17T10:28:00.802Z,26.88
2018-09-17T10:30:29.152Z,26.62
2018-09-17T10:32:57.492Z,26.35
2018-09-17T10:35:25.861Z,26.41
2018-09-17T10:37:54.165Z,26.46
2018-09-17T10:40:22.684Z,25.82
2018-09-17T10:42:51.182Z,28.07
2018-09-17T10:45:19.695Z,25.68
2018-09-17T10:47:47.977Z,25.88
2018-09-17T10:50:16.276Z,25.25
2018-09-17T10:52:44.636Z,25.57
2018-09-17T10:55:12.924Z,24.60
2018-09-17T10:57:41.314Z,25.09
2018-09-17T11:00:09.837Z,25.45
2018-09-17T11:02:38.142Z,25.56
2018-09-17T11:05:06.450Z,25.06
2018-09-17T11:07:35.016Z,24.88
2018-09-17T11:10:03.330Z,24.14
2018-09-17T11:12:31.614Z,26.12
2018-09-17T11:15:00.027Z,25.04
2018-09-17T11:17:29.209Z,23.57
2018-09-17T11:19:58.051Z,24.13
2018-09-17T11:22:26.744Z,24.49
2018-09-17T11:24:55.127Z,23.75
2018-09-17T11:27:23.545Z,23.96
2018-09-17T11:29:51.898Z,22.18
2018-09-17T11:32:20.790Z,21.02
2018-09-17T11:34:49.391Z,21.10
2018-09-17T11:37:17.702Z,23.26
2018-09-17T11:39:46.139Z,17.71
2018-09-17T11:42:14.532Z,18.99
2018-09-17T11:44:42.871Z,22.37
2018-09-17T11:47:11.207Z,18.19
2018-09-17T11:49:39.622Z,16.43
2018-09-17T11:52:07.978Z,17.10
2018-09-17T11:54:36.255Z,17.21
2018-09-17T11:57:04.631Z,16.09
2018-09-17T11:59:33.153Z,15.37
2018-09-17T12:02:04.322Z,16.09
2018-09-17T12:04:38.043Z,15.51
2018-09-17T12:08:10.530Z,12.48
2018-09-17T12:10:38.810Z,11.74
2018-09-17T12:13:07.154Z,10.54
2018-09-17T12:15:39.868Z,9.88
2018-09-17T12:18:08.835Z,10.59
2018-09-17T12:20:37.809Z,9.96
2018-09-17T12:23:06.739Z,8.62
2018-09-17T12:25:35.523Z,6.86
2018-09-17T12:28:03.891Z,6.36
2018-09-17T12:30:32.209Z,6.14
2018-09-17T12:33:00.793Z,6.64
2018-09-17T12:35:29.307Z,6.84
2018-09-17T12:37:57.822Z,6.96
2018-09-17T12:40:26.921Z,7.20
2018-09-17T12:42:55.463Z,7.19
2018-09-17T12:45:24.712Z,7.83
2018-09-17T12:47:53.744Z,7.55
2018-09-17T12:50:22.167Z,8.54
2018-09-17T12:52:50.522Z,7.81
2018-09-17T12:55:18.995Z,8.66
2018-09-17T12:57:47.443Z,8.11
2018-09-17T13:00:15.788Z,8.32
2018-09-17T13:02:44.183Z,7.65
2018-09-17T13:05:12.481Z,8.10
2018-09-17T13:07:41.129Z,9.33
2018-09-17T13:10:09.675Z,9.08
2018-09-17T13:12:37.988Z,8.55
2018-09-17T13:15:07.059Z,8.54
2018-09-17T13:17:35.343Z,8.00
2018-09-17T13:20:03.791Z,7.08
2018-09-17T13:22:32.449Z,8.13
2018-09-17T13:25:00.847Z,7.34
2018-09-17T13:27:30.253Z,7.58
2018-09-17T13:29:58.525Z,8.08
2018-09-17T13:32:26.826Z,8.23
2018-09-17T13:34:55.214Z,10.15
2018-09-17T13:37:24.128Z,10.11
2018-09-17T13:39:52.452Z,9.34
2018-09-17T13:42:21.220Z,8.71
2018-09-17T13:44:49.540Z,7.33
2018-09-17T13:47:17.855Z,7.33
2018-09-17T13:49:46.118Z,7.06
2018-09-17T13:52:14.567Z,8.18
2018-09-17T13:54:42.853Z,7.32
2018-09-17T13:57:11.219Z,7.81
2018-09-17T13:59:39.709Z,7.77
2018-09-17T14:02:08.061Z,6.37
2018-09-17T14:04:36.465Z,5.16
2018-09-17T14:07:04.958Z,4.72
2018-09-17T14:09:33.255Z,5.24
2018-09-17T14:12:01.652Z,6.21
2018-09-17T14:14:30.009Z,5.39
2018-09-17T14:16:58.334Z,5.01
2018-09-17T14:19:26.607Z,5.27
2018-09-17T14:21:55.032Z,5.64
2018-09-17T14:24:23.961Z,5.63
2018-09-17T14:26:52.253Z,5.15
2018-09-17T14:29:20.679Z,5.66
2018-09-17T14:31:54.412Z,5.30
2018-09-17T14:34:22.930Z,4.77
2018-09-17T14:36:51.266Z,5.00
2018-09-17T14:39:19.562Z,5.95
2018-09-17T14:41:47.874Z,5.31
2018-09-17T14:44:16.184Z,5.06
2018-09-17T14:46:44.455Z,4.58
2018-09-17T14:49:12.774Z,6.36
2018-09-17T14:51:41.033Z,6.02
2018-09-17T14:54:09.324Z,5.24
2018-09-17T14:56:37.627Z,5.28
2018-09-17T14:59:06.032Z,4.92
2018-09-17T15:01:35.264Z,5.16
2018-09-17T15:04:03.497Z,4.75
2018-09-17T15:06:31.916Z,4.35
2018-09-17T15:09:00.269Z,4.58
2018-09-17T15:11:29.027Z,5.66
2018-09-17T15:13:57.371Z,5.14
2018-09-17T15:16:25.796Z,4.95
2018-09-17T15:18:54.082Z,4.52
2018-09-17T15:21:22.541Z,5.13
2018-09-17T15:23:50.797Z,4.51
2018-09-17T15:26:19.238Z,4.95
2018-09-17T15:28:47.487Z,5.29
2018-09-17T15:31:15.892Z,5.05
2018-09-17T15:33:44.179Z,4.43
2018-09-17T15:36:13.443Z,5.11
2018-09-17T15:38:42.179Z,5.64
2018-09-17T15:41:10.861Z,6.47
2018-09-17T15:43:39.256Z,5.34
2018-09-17T15:46:07.586Z,5.70
2018-09-17T15:48:36.396Z,6.31
2018-09-17T15:51:04.887Z,6.91
2018-09-17T15:53:33.935Z,6.60
2018-09-17T15:56:02.253Z,5.82
2018-09-17T15:58:31.344Z,5.80
2018-09-17T16:00:59.744Z,6.22
2018-09-17T16:03:28.037Z,6.93
2018-09-17T16:05:56.499Z,6.81
2018-09-17T16:08:24.913Z,7.53
2018-09-17T16:10:53.456Z,7.11
2018-09-17T16:13:22.134Z,6.39
2018-09-17T16:15:50.561Z,7.42
2018-09-17T16:18:19.423Z,6.85
2018-09-17T16:20:48.046Z,7.01
2018-09-17T16:23:16.466Z,7.58
2018-09-17T16:25:45.297Z,8.30
2018-09-17T16:28:13.649Z,7.56
2018-09-17T16:30:41.944Z,8.15
2018-09-17T16:33:10.319Z,8.82
2018-09-17T16:35:39.490Z,8.55
2018-09-17T16:38:07.889Z,8.27
2018-09-17T16:40:36.182Z,9.67
2018-09-17T16:43:04.536Z,10.13
2018-09-17T16:45:32.850Z,11.60
2018-09-17T16:48:01.406Z,13.49
2018-09-17T16:50:30.187Z,13.08
2018-09-17T16:52:58.601Z,14.30
2018-09-17T16:55:26.870Z,14.35
2018-09-17T16:57:55.429Z,15.64
2018-09-17T17:00:23.767Z,15.92
2018-09-17T17:02:52.272Z,16.94
2018-09-17T17:05:20.877Z,16.74
2018-09-17T17:07:49.119Z,17.13
2018-09-17T17:10:17.773Z,17.72
2018-09-17T17:12:46.093Z,18.42
2018-09-17T17:15:20.853Z,18.16
2018-09-17T17:17:49.186Z,18.71
2018-09-17T17:20:17.439Z,18.62
2018-09-17T17:22:45.767Z,18.47
2018-09-17T17:25:14.191Z,18.78
2018-09-17T17:27:42.625Z,19.26
2018-09-17T17:30:10.950Z,19.35
2018-09-17T17:32:40.399Z,20.22
2018-09-17T17:35:08.738Z,20.12
2018-09-17T17:37:37.026Z,20.37
2018-09-17T17:40:06.347Z,20.17
2018-09-17T17:42:34.636Z,20.43
2018-09-17T17:45:03.010Z,20.69
2018-09-17T17:47:31.347Z,20.83
2018-09-17T17:49:59.682Z,21.21
2018-09-17T17:52:27.994Z,21.18
2018-09-17T17:54:56.351Z,20.69
2018-09-17T17:57:24.629Z,21.40
2018-09-17T17:59:53.006Z,21.59
2018-09-17T18:02:24.676Z,21.76
2018-09-17T18:04:55.416Z,21.81
2018-09-17T18:07:23.831Z,21.86
2018-09-17T18:09:52.141Z,22.00
2018-09-17T18:12:20.440Z,22.25
2018-09-17T18:14:49.066Z,22.43
2018-09-17T18:17:17.371Z,22.83
2018-09-17T18:19:46.008Z,23.11
2018-09-17T18:22:14.298Z,22.87
2018-09-17T18:24:43.649Z,23.17
2018-09-17T18:27:12.040Z,23.72
2018-09-17T18:29:40.341Z,23.95
2018-09-17T18:32:08.738Z,23.77
2018-09-17T18:34:37.029Z,24.00
2018-09-17T18:37:05.630Z,25.94
2018-09-17T18:39:34.024Z,26.06
2018-09-17T18:42:02.406Z,26.82
2018-09-17T18:44:30.770Z,27.65
2018-09-17T18:46:59.103Z,27.96
2018-09-17T18:49:27.428Z,27.98
2018-09-17T18:51:55.727Z,28.27
2018-09-17T18:54:24.091Z,28.34
2018-09-17T18:56:52.568Z,28.42
2018-09-17T18:59:20.915Z,28.96
2018-09-17T19:01:49.236Z,28.57
2018-09-17T19:04:17.559Z,29.06
2018-09-17T19:06:45.975Z,29.56
2018-09-17T19:09:14.454Z,29.11
2018-09-17T19:11:42.794Z,29.07
2018-09-17T19:14:16.523Z,30.16
2018-09-17T19:16:54.152Z,29.64
2018-09-17T19:19:22.703Z,39.56
2018-09-17T19:21:56.603Z,38.15
2018-09-17T19:24:24.764Z,28.85
2018-09-17T19:26:53.109Z,29.72
2018-09-17T19:29:22.261Z,29.43
2018-09-17T19:31:50.645Z,29.78
2018-09-17T19:34:19.039Z,30.09
2018-09-17T19:36:47.550Z,30.64
2018-09-17T19:39:21.508Z,31.08
2018-09-17T19:41:49.867Z,31.50
2018-09-17T19:44:18.160Z,31.90
2018-09-17T19:46:46.495Z,32.21
2018-09-17T19:49:14.844Z,32.25
2018-09-17T19:51:48.464Z,32.33
2018-09-17T19:54:16.822Z,32.55
2018-09-17T19:56:45.151Z,32.73
2018-09-17T19:59:19.028Z,33.20
2018-09-17T20:01:47.344Z,32.90
2018-09-17T20:04:20.940Z,33.20
2018-09-17T20:06:49.476Z,33.56
2018-09-17T20:09:17.799Z,33.86
2018-09-17T20:11:46.268Z,32.50
2018-09-17T20:14:14.680Z,32.46
2018-09-17T20:16:43.111Z,33.08
2018-09-17T20:19:11.750Z,32.87
2018-09-17T20:21:40.150Z,33.61
2018-09-17T20:24:08.650Z,33.37
2018-09-17T20:26:36.995Z,34.60
2018-09-17T20:29:05.534Z,32.98
2018-09-17T20:31:33.887Z,35.97
2018-09-17T20:34:02.969Z,33.29
2018-09-17T20:36:31.638Z,32.84
2018-09-17T20:39:00.188Z,33.63
2018-09-17T20:41:28.501Z,33.05
2018-09-17T20:43:56.899Z,33.22
2018-09-17T20:46:25.155Z,33.50
2018-09-17T20:48:53.654Z,33.95
2018-09-17T20:51:22.060Z,34.17
2018-09-17T20:53:50.375Z,34.37
2018-09-17T20:56:18.687Z,34.77
2018-09-17T20:58:48.293Z,34.87
2018-09-17T21:01:16.951Z,34.59
2018-09-17T21:03:45.634Z,34.70
2018-09-17T21:06:14.040Z,35.05
2018-09-17T21:08:42.458Z,35.31
2018-09-17T21:11:10.813Z,35.07
2018-09-17T21:13:39.480Z,35.55
2018-09-17T21:16:07.946Z,35.60
2018-09-17T21:18:36.317Z,35.91
2018-09-17T21:21:04.869Z,35.35
2018-09-17T21:23:33.297Z,36.03
2018-09-17T21:26:01.585Z,35.88
2018-09-17T21:28:30.017Z,35.86
2018-09-17T21:30:58.597Z,36.00
2018-09-17T21:33:26.759Z,35.75
2018-09-17T21:35:55.323Z,36.49
2018-09-17T21:38:25.138Z,36.20
2018-09-17T21:40:53.628Z,36.64
2018-09-17T21:43:25.257Z,36.46
2018-09-17T21:45:53.679Z,36.82
2018-09-17T21:48:22.251Z,36.68
2018-09-17T21:50:50.541Z,36.94
2018-09-17T21:53:18.814Z,37.65
2018-09-17T21:55:47.434Z,36.99
2018-09-17T21:58:15.794Z,37.06
2018-09-17T22:00:49.712Z,37.15
2018-09-17T22:03:18.192Z,37.55
2018-09-17T22:05:46.535Z,38.15
2018-09-17T22:08:15.017Z,38.39
2018-09-17T22:10:43.476Z,37.32
2018-09-17T22:13:11.836Z,37.60
2018-09-17T22:15:40.287Z,38.61
2018-09-17T22:18:08.684Z,38.09
2018-09-17T22:20:37.000Z,38.47
2018-09-17T22:23:05.324Z,38.46
2018-09-17T22:25:33.761Z,38.60
2018-09-17T22:28:02.396Z,38.43
2018-09-17T22:30:30.653Z,38.67
2018-09-17T22:32:59.056Z,38.70
2018-09-17T22:35:27.401Z,38.51
2018-09-17T22:37:55.687Z,39.29
2018-09-17T22:40:24.067Z,38.79
2018-09-17T22:42:52.373Z,39.21
2018-09-17T22:45:20.716Z,39.41
2018-09-17T22:47:48.984Z,39.48
2018-09-17T22:50:17.418Z,39.34
2018-09-17T22:52:45.909Z,39.33
2018-09-17T22:55:14.312Z,40.43
2018-09-17T22:57:42.671Z,39.90
2018-09-17T23:00:11.065Z,39.63
2018-09-17T23:02:39.356Z,40.05
2018-09-17T23:05:07.779Z,39.97
2018-09-17T23:07:36.135Z,39.57
2018-09-17T23:10:05.021Z,39.12
2018-09-17T23:12:35.030Z,38.97
2018-09-17T23:15:03.489Z,39.15
2018-09-17T23:17:31.846Z,39.22
2018-09-17T23:20:00.196Z,38.83
2018-09-17T23:22:28.481Z,39.41
2018-09-17T23:24:56.791Z,39.50
2018-09-17T23:27:25.170Z,39.56
2018-09-17T23:29:53.505Z,40.21
2018-09-17T23:32:21.755Z,39.64
2018-09-17T23:34:50.222Z,39.40
2018-09-17T23:37:18.733Z,41.78
2018-09-17T23:39:47.117Z,41.54
2018-09-17T23:42:15.465Z,41.97
2018-09-17T23:44:43.866Z,42.60
2018-09-17T23:47:12.162Z,42.27
2018-09-17T23:49:40.458Z,41.53
2018-09-17T23:52:08.759Z,41.83
2018-09-17T23:54:37.037Z,42.65
2018-09-17T23:57:05.416Z,41.48
2018-09-17T23:59:33.718Z,40.68
